sensor_id;sensor_type;location;lat;lon;timestamp;pressure;altitude;pressure_sealevel;temperature;humidity
6128;BME280;7073;42.672;23.256;2022-11-12T00:00:41;95712.81;;;10.51;100.00
6128;BME280;7073;42.672;23.256;2022-11-12T00:03:10;95667.88;;;10.34;100.00
6128;BME280;7073;42.672;23.256;2022-11-12T00:05:37;95717.34;;;10.78;100.00
6128;BME280;7073;42.672;23.256;2022-11-12T00:08:04;95713.03;;;10.70;100.00
6128;BME280;7073;42.672;23.256;2022-11-12T00:10:31;95698.81;;;10.73;100.00
6128;BME280;7073;42.672;23.256;2022-11-12T00:12:58;95665.34;;;10.40;99.22
6128;BME280;7073;42.672;23.256;2022-11-12T00:15:25;95686.03;;;10.27;100.00
6128;BME280;7073;42.672;23.256;2022-11-12T00:17:52;95684.06;;;9.77;100.00
6128;BME280;7073;42.672;23.256;2022-11-12T00:20:20;95689.72;;;9.66;100.00
6128;BME280;7073;42.672;23.256;2022-11-12T00:22:47;95694.63;;;9.61;100.00
6128;BME280;7073;42.672;23.256;2022-11-12T00:25:14;95690.09;;;9.78;100.00
6128;BME280;7073;42.672;23.256;2022-11-12T00:27:40;95697.72;;;9.79;100.00
6128;BME280;7073;42.672;23.256;2022-11-12T00:30:08;95704.09;;;10.29;100.00
6128;BME280;7073;42.672;23.256;2022-11-12T00:32:35;95687.47;;;9.78;100.00
6128;BME280;7073;42.672;23.256;2022-11-12T00:35:02;95711.78;;;10.08;100.00
6128;BME280;7073;42.672;23.256;2022-11-12T00:37:30;95656.41;;;9.62;100.00
6128;BME280;7073;42.672;23.256;2022-11-12T00:39:57;95707.09;;;10.03;100.00
6128;BME280;7073;42.672;23.256;2022-11-12T00:42:24;95711.72;;;9.93;100.00
6128;BME280;7073;42.672;23.256;2022-11-12T00:44:51;95705.75;;;10.07;100.00
6128;BME280;7073;42.672;23.256;2022-11-12T00:47:18;95706.16;;;10.19;100.00
6128;BME280;7073;42.672;23.256;2022-11-12T00:49:45;95709.28;;;10.14;100.00
6128;BME280;7073;42.672;23.256;2022-11-12T00:52:12;95686.91;;;10.05;100.00
6128;BME280;7073;42.672;23.256;2022-11-12T00:54:40;95701.09;;;10.47;100.00
6128;BME280;7073;42.672;23.256;2022-11-12T00:57:07;95696.25;;;10.43;100.00
6128;BME280;7073;42.672;23.256;2022-11-12T00:59:34;95687.13;;;9.81;100.00
6128;BME280;7073;42.672;23.256;2022-11-12T01:02:01;95663.78;;;9.73;100.00
6128;BME280;7073;42.672;23.256;2022-11-12T01:04:27;95685.13;;;10.20;100.00
6128;BME280;7073;42.672;23.256;2022-11-12T01:06:54;95652.44;;;10.03;100.00
6128;BME280;7073;42.672;23.256;2022-11-12T01:09:21;95675.41;;;10.43;100.00
6128;BME280;7073;42.672;23.256;2022-11-12T01:11:49;95688.16;;;10.09;100.00
6128;BME280;7073;42.672;23.256;2022-11-12T01:14:16;95680.81;;;9.61;100.00
6128;BME280;7073;42.672;23.256;2022-11-12T01:16:43;95676.84;;;9.50;100.00
6128;BME280;7073;42.672;23.256;2022-11-12T01:19:10;95676.94;;;9.57;100.00
6128;BME280;7073;42.672;23.256;2022-11-12T01:21:40;95683.28;;;10.06;100.00
6128;BME280;7073;42.672;23.256;2022-11-12T01:24:08;95682.09;;;10.31;100.00
6128;BME280;7073;42.672;23.256;2022-11-12T01:26:35;95659.81;;;10.14;100.00
6128;BME280;7073;42.672;23.256;2022-11-12T01:29:04;95678.69;;;10.16;100.00
6128;BME280;7073;42.672;23.256;2022-11-12T01:31:32;95684.31;;;10.20;100.00
6128;BME280;7073;42.672;23.256;2022-11-12T01:34:02;95682.22;;;10.59;100.00
6128;BME280;7073;42.672;23.256;2022-11-12T01:36:32;95660.94;;;10.56;100.00
6128;BME280;7073;42.672;23.256;2022-11-12T01:38:59;95659.78;;;10.43;100.00
6128;BME280;7073;42.672;23.256;2022-11-12T01:41:29;95673.28;;;10.83;100.00
6128;BME280;7073;42.672;23.256;2022-11-12T01:44:15;95670.81;;;10.96;100.00
6128;BME280;7073;42.672;23.256;2022-11-12T01:46:49;95631.53;;;10.62;100.00
6128;BME280;7073;42.672;23.256;2022-11-12T01:49:20;95653.94;;;10.56;100.00
6128;BME280;7073;42.672;23.256;2022-11-12T01:51:50;95648.28;;;10.53;100.00
6128;BME280;7073;42.672;23.256;2022-11-12T01:54:20;95666.59;;;10.95;100.00
6128;BME280;7073;42.672;23.256;2022-11-12T01:56:48;95658.00;;;10.59;100.00
6128;BME280;7073;42.672;23.256;2022-11-12T01:59:20;95650.69;;;10.54;100.00
6128;BME280;7073;42.672;23.256;2022-11-12T02:01:50;95655.44;;;10.80;100.00
6128;BME280;7073;42.672;23.256;2022-11-12T02:04:17;95655.94;;;10.90;99.68
6128;BME280;7073;42.672;23.256;2022-11-12T02:06:45;95665.16;;;10.71;100.00
6128;BME280;7073;42.672;23.256;2022-11-12T02:09:13;95664.53;;;10.55;100.00
6128;BME280;7073;42.672;23.256;2022-11-12T02:11:40;95638.97;;;10.00;100.00
6128;BME280;7073;42.672;23.256;2022-11-12T02:14:07;95660.63;;;10.15;100.00
6128;BME280;7073;42.672;23.256;2022-11-12T02:16:36;95653.63;;;10.15;100.00
6128;BME280;7073;42.672;23.256;2022-11-12T02:19:04;95660.44;;;10.16;100.00
6128;BME280;7073;42.672;23.256;2022-11-12T02:21:34;95662.88;;;10.18;100.00
6128;BME280;7073;42.672;23.256;2022-11-12T02:24:03;95643.06;;;10.53;100.00
6128;BME280;7073;42.672;23.256;2022-11-12T02:26:32;95671.31;;;10.34;100.00
6128;BME280;7073;42.672;23.256;2022-11-12T02:29:00;95661.56;;;10.58;100.00
6128;BME280;7073;42.672;23.256;2022-11-12T02:31:27;95664.88;;;10.66;100.00
6128;BME280;7073;42.672;23.256;2022-11-12T02:33:56;95648.81;;;10.63;100.00
6128;BME280;7073;42.672;23.256;2022-11-12T02:36:22;95656.66;;;10.84;100.00
6128;BME280;7073;42.672;23.256;2022-11-12T02:38:51;95664.22;;;10.79;100.00
6128;BME280;7073;42.672;23.256;2022-11-12T02:41:17;95654.47;;;10.52;100.00
6128;BME280;7073;42.672;23.256;2022-11-12T02:43:44;95652.13;;;10.71;100.00
6128;BME280;7073;42.672;23.256;2022-11-12T02:46:11;95632.81;;;10.66;100.00
6128;BME280;7073;42.672;23.256;2022-11-12T02:48:38;95650.25;;;10.86;100.00
6128;BME280;7073;42.672;23.256;2022-11-12T02:51:05;95648.06;;;10.69;100.00
6128;BME280;7073;42.672;23.256;2022-11-12T02:53:32;95656.50;;;10.71;100.00
6128;BME280;7073;42.672;23.256;2022-11-12T02:56:01;95661.09;;;10.69;100.00
6128;BME280;7073;42.672;23.256;2022-11-12T02:58:28;95653.53;;;10.74;100.00
6128;BME280;7073;42.672;23.256;2022-11-12T03:00:55;95655.47;;;10.51;100.00
6128;BME280;7073;42.672;23.256;2022-11-12T03:03:22;95639.59;;;10.67;100.00
6128;BME280;7073;42.672;23.256;2022-11-12T03:05:54;95656.66;;;10.84;98.46
6128;BME280;7073;42.672;23.256;2022-11-12T03:08:22;95656.19;;;10.44;99.61
6128;BME280;7073;42.672;23.256;2022-11-12T03:10:49;95636.94;;;10.60;99.64
6128;BME280;7073;42.672;23.256;2022-11-12T03:13:18;95653.78;;;10.79;99.21
6128;BME280;7073;42.672;23.256;2022-11-12T03:15:45;95654.72;;;10.57;100.00
6128;BME280;7073;42.672;23.256;2022-11-12T03:18:12;95659.16;;;10.56;99.80
6128;BME280;7073;42.672;23.256;2022-11-12T03:20:39;95656.19;;;10.44;99.88
6128;BME280;7073;42.672;23.256;2022-11-12T03:23:07;95645.53;;;10.25;100.00
6128;BME280;7073;42.672;23.256;2022-11-12T03:25:35;95654.94;;;9.97;100.00
6128;BME280;7073;42.672;23.256;2022-11-12T03:28:03;95660.66;;;10.07;100.00
6128;BME280;7073;42.672;23.256;2022-11-12T03:30:34;95662.41;;;10.29;100.00
6128;BME280;7073;42.672;23.256;2022-11-12T03:33:01;95669.91;;;10.68;98.64
6128;BME280;7073;42.672;23.256;2022-11-12T03:35:28;95659.59;;;10.60;98.08
6128;BME280;7073;42.672;23.256;2022-11-12T03:37:55;95666.38;;;10.39;97.62
6128;BME280;7073;42.672;23.256;2022-11-12T03:40:23;95664.31;;;10.20;97.73
6128;BME280;7073;42.672;23.256;2022-11-12T03:42:51;95662.28;;;9.64;100.00
6128;BME280;7073;42.672;23.256;2022-11-12T03:45:19;95656.00;;;10.02;99.81
6128;BME280;7073;42.672;23.256;2022-11-12T03:47:49;95656.22;;;10.15;99.24
6128;BME280;7073;42.672;23.256;2022-11-12T03:50:18;95662.94;;;10.39;97.55
6128;BME280;7073;42.672;23.256;2022-11-12T03:52:45;95659.72;;;10.37;96.57
6128;BME280;7073;42.672;23.256;2022-11-12T03:55:13;95660.34;;;10.39;96.22
6128;BME280;7073;42.672;23.256;2022-11-12T03:57:40;95674.59;;;10.43;94.95
6128;BME280;7073;42.672;23.256;2022-11-12T04:00:09;95667.38;;;10.24;94.47
6128;BME280;7073;42.672;23.256;2022-11-12T04:02:37;95671.47;;;10.48;94.59
6128;BME280;7073;42.672;23.256;2022-11-12T04:05:07;95665.00;;;10.43;93.60
6128;BME280;7073;42.672;23.256;2022-11-12T04:07:56;95665.16;;;10.57;92.97
6128;BME280;7073;42.672;23.256;2022-11-12T04:10:41;95664.13;;;10.36;93.07
6128;BME280;7073;42.672;23.256;2022-11-12T04:13:08;95650.81;;;10.17;93.47
6128;BME280;7073;42.672;23.256;2022-11-12T04:15:57;95648.31;;;10.23;93.94
6128;BME280;7073;42.672;23.256;2022-11-12T04:18:42;95649.56;;;10.27;91.95
6128;BME280;7073;42.672;23.256;2022-11-12T04:21:30;95651.38;;;10.12;91.24
6128;BME280;7073;42.672;23.256;2022-11-12T04:24:24;95650.03;;;10.16;91.41
6128;BME280;7073;42.672;23.256;2022-11-12T04:27:11;95603.31;;;9.71;91.35
6128;BME280;7073;42.672;23.256;2022-11-12T04:29:38;95650.63;;;9.89;91.78
6128;BME280;7073;42.672;23.256;2022-11-12T04:32:23;95646.31;;;9.96;91.19
6128;BME280;7073;42.672;23.256;2022-11-12T04:34:50;95641.75;;;9.32;92.35
6128;BME280;7073;42.672;23.256;2022-11-12T04:37:20;95638.34;;;9.46;93.54
6128;BME280;7073;42.672;23.256;2022-11-12T04:39:48;95650.50;;;9.53;93.04
6128;BME280;7073;42.672;23.256;2022-11-12T04:42:15;95651.31;;;9.68;92.49
6128;BME280;7073;42.672;23.256;2022-11-12T04:44:59;95653.81;;;9.62;91.60
6128;BME280;7073;42.672;23.256;2022-11-12T04:47:30;95645.94;;;9.70;91.43
6128;BME280;7073;42.672;23.256;2022-11-12T04:49:58;95639.69;;;9.42;91.18
6128;BME280;7073;42.672;23.256;2022-11-12T04:52:27;95650.97;;;9.34;91.71
6128;BME280;7073;42.672;23.256;2022-11-12T04:54:55;95650.28;;;9.17;93.05
6128;BME280;7073;42.672;23.256;2022-11-12T04:57:22;95656.00;;;9.36;93.04
6128;BME280;7073;42.672;23.256;2022-11-12T04:59:48;95652.56;;;9.58;92.06
6128;BME280;7073;42.672;23.256;2022-11-12T05:02:16;95656.06;;;9.65;91.58
6128;BME280;7073;42.672;23.256;2022-11-12T05:04:43;95655.53;;;9.69;91.71
6128;BME280;7073;42.672;23.256;2022-11-12T05:07:10;95652.50;;;9.80;91.86
6128;BME280;7073;42.672;23.256;2022-11-12T05:09:38;95663.81;;;9.88;91.75
6128;BME280;7073;42.672;23.256;2022-11-12T05:12:06;95671.44;;;9.89;91.42
6128;BME280;7073;42.672;23.256;2022-11-12T05:14:33;95665.88;;;9.92;91.04
6128;BME280;7073;42.672;23.256;2022-11-12T05:17:00;95674.94;;;9.81;90.91
6128;BME280;7073;42.672;23.256;2022-11-12T05:19:27;95680.97;;;9.97;90.96
6128;BME280;7073;42.672;23.256;2022-11-12T05:21:54;95676.53;;;9.82;91.13
6128;BME280;7073;42.672;23.256;2022-11-12T05:24:34;95680.38;;;9.72;91.39
6128;BME280;7073;42.672;23.256;2022-11-12T05:27:06;95653.31;;;9.44;91.71
6128;BME280;7073;42.672;23.256;2022-11-12T05:29:33;95681.47;;;9.77;91.95
6128;BME280;7073;42.672;23.256;2022-11-12T05:32:01;95671.72;;;9.79;91.47
6128;BME280;7073;42.672;23.256;2022-11-12T05:34:28;95686.16;;;9.82;91.51
6128;BME280;7073;42.672;23.256;2022-11-12T05:36:55;95683.66;;;10.03;90.39
6128;BME280;7073;42.672;23.256;2022-11-12T05:39:22;95685.97;;;9.69;91.66
6128;BME280;7073;42.672;23.256;2022-11-12T05:41:49;95679.78;;;9.84;92.03
6128;BME280;7073;42.672;23.256;2022-11-12T05:44:17;95680.69;;;9.92;92.01
6128;BME280;7073;42.672;23.256;2022-11-12T05:46:44;95680.88;;;9.90;92.38
6128;BME280;7073;42.672;23.256;2022-11-12T05:49:11;95686.25;;;9.51;92.28
6128;BME280;7073;42.672;23.256;2022-11-12T05:51:38;95688.63;;;9.61;93.75
6128;BME280;7073;42.672;23.256;2022-11-12T05:54:05;95687.06;;;9.74;93.59
6128;BME280;7073;42.672;23.256;2022-11-12T05:56:32;95698.28;;;10.04;92.56
6128;BME280;7073;42.672;23.256;2022-11-12T05:58:59;95698.44;;;9.88;91.81
6128;BME280;7073;42.672;23.256;2022-11-12T06:01:27;95695.75;;;9.81;92.07
6128;BME280;7073;42.672;23.256;2022-11-12T06:03:54;95702.06;;;10.02;91.92
6128;BME280;7073;42.672;23.256;2022-11-12T06:06:21;95702.25;;;10.00;91.22
6128;BME280;7073;42.672;23.256;2022-11-12T06:08:48;95705.16;;;10.20;89.12
6128;BME280;7073;42.672;23.256;2022-11-12T06:11:15;95697.06;;;10.15;88.22
6128;BME280;7073;42.672;23.256;2022-11-12T06:13:42;95715.00;;;9.95;88.86
6128;BME280;7073;42.672;23.256;2022-11-12T06:16:09;95707.81;;;9.97;89.66
6128;BME280;7073;42.672;23.256;2022-11-12T06:18:37;95687.59;;;9.99;89.13
6128;BME280;7073;42.672;23.256;2022-11-12T06:21:06;95709.19;;;10.22;88.64
6128;BME280;7073;42.672;23.256;2022-11-12T06:23:47;95712.81;;;10.51;88.12
6128;BME280;7073;42.672;23.256;2022-11-12T06:26:15;95708.13;;;10.61;87.80
6128;BME280;7073;42.672;23.256;2022-11-12T06:28:42;95711.94;;;10.06;87.91
6128;BME280;7073;42.672;23.256;2022-11-12T06:31:08;95709.81;;;10.54;87.67
6128;BME280;7073;42.672;23.256;2022-11-12T06:33:35;95710.63;;;10.69;86.12
6128;BME280;7073;42.672;23.256;2022-11-12T06:36:04;95700.72;;;10.79;86.43
6128;BME280;7073;42.672;23.256;2022-11-12T06:38:33;95707.56;;;10.80;86.21
6128;BME280;7073;42.672;23.256;2022-11-12T06:41:00;95694.59;;;10.86;85.57
6128;BME280;7073;42.672;23.256;2022-11-12T06:43:28;95723.06;;;10.88;84.92
6128;BME280;7073;42.672;23.256;2022-11-12T06:45:58;95723.31;;;11.07;84.34
6128;BME280;7073;42.672;23.256;2022-11-12T06:48:25;95719.72;;;10.94;84.25
6128;BME280;7073;42.672;23.256;2022-11-12T06:50:52;95731.47;;;11.19;83.68
6128;BME280;7073;42.672;23.256;2022-11-12T06:53:20;95733.44;;;11.17;81.57
6128;BME280;7073;42.672;23.256;2022-11-12T06:55:47;95732.06;;;10.85;83.22
6128;BME280;7073;42.672;23.256;2022-11-12T06:58:18;95729.94;;;10.74;84.28
6128;BME280;7073;42.672;23.256;2022-11-12T07:00:45;95736.03;;;10.81;84.78
6128;BME280;7073;42.672;23.256;2022-11-12T07:03:13;95733.31;;;10.89;83.65
6128;BME280;7073;42.672;23.256;2022-11-12T07:05:46;95715.94;;;11.11;83.04
6128;BME280;7073;42.672;23.256;2022-11-12T07:08:14;95704.56;;;11.19;82.28
6128;BME280;7073;42.672;23.256;2022-11-12T07:10:42;95725.25;;;11.41;81.61
6128;BME280;7073;42.672;23.256;2022-11-12T07:13:09;95720.66;;;11.43;81.33
6128;BME280;7073;42.672;23.256;2022-11-12T07:15:36;95712.13;;;11.14;81.42
6128;BME280;7073;42.672;23.256;2022-11-12T07:18:03;95727.50;;;11.44;82.25
6128;BME280;7073;42.672;23.256;2022-11-12T07:20:30;95716.41;;;11.00;82.46
6128;BME280;7073;42.672;23.256;2022-11-12T07:22:59;95718.38;;;10.98;81.76
6128;BME280;7073;42.672;23.256;2022-11-12T07:25:25;95714.50;;;11.09;82.63
6128;BME280;7073;42.672;23.256;2022-11-12T07:27:54;95715.69;;;11.27;81.07
6128;BME280;7073;42.672;23.256;2022-11-12T07:30:21;95722.28;;;11.44;79.36
6128;BME280;7073;42.672;23.256;2022-11-12T07:32:47;95724.25;;;11.63;79.51
6128;BME280;7073;42.672;23.256;2022-11-12T07:35:14;95729.63;;;11.55;79.17
6128;BME280;7073;42.672;23.256;2022-11-12T07:37:41;95721.03;;;11.40;78.79
6128;BME280;7073;42.672;23.256;2022-11-12T07:40:08;95722.41;;;11.36;78.75
6128;BME280;7073;42.672;23.256;2022-11-12T07:42:35;95727.22;;;11.18;79.14
6128;BME280;7073;42.672;23.256;2022-11-12T07:45:04;95707.00;;;11.41;77.98
6128;BME280;7073;42.672;23.256;2022-11-12T07:47:31;95720.78;;;11.35;78.00
6128;BME280;7073;42.672;23.256;2022-11-12T07:49:58;95722.28;;;11.65;76.83
6128;BME280;7073;42.672;23.256;2022-11-12T07:52:24;95724.16;;;11.50;77.00
6128;BME280;7073;42.672;23.256;2022-11-12T07:54:51;95722.06;;;11.67;77.26
6128;BME280;7073;42.672;23.256;2022-11-12T07:57:18;95723.91;;;11.88;77.29
6128;BME280;7073;42.672;23.256;2022-11-12T07:59:45;95722.09;;;12.16;76.34
6128;BME280;7073;42.672;23.256;2022-11-12T08:02:13;95728.38;;;12.21;71.18
6128;BME280;7073;42.672;23.256;2022-11-12T08:04:39;95723.53;;;12.25;69.36
6128;BME280;7073;42.672;23.256;2022-11-12T08:07:06;95735.38;;;12.21;70.21
6128;BME280;7073;42.672;23.256;2022-11-12T08:09:34;95734.59;;;12.20;69.89
6128;BME280;7073;42.672;23.256;2022-11-12T08:12:02;95729.47;;;12.06;71.26
6128;BME280;7073;42.672;23.256;2022-11-12T08:14:29;95733.94;;;11.91;71.90
6128;BME280;7073;42.672;23.256;2022-11-12T08:16:56;95724.81;;;11.80;71.87
6128;BME280;7073;42.672;23.256;2022-11-12T08:19:24;95730.41;;;11.35;73.71
6128;BME280;7073;42.672;23.256;2022-11-12T08:21:51;95740.66;;;11.36;73.51
6128;BME280;7073;42.672;23.256;2022-11-12T08:24:18;95744.09;;;11.37;74.20
6128;BME280;7073;42.672;23.256;2022-11-12T08:26:44;95741.94;;;11.61;72.97
6128;BME280;7073;42.672;23.256;2022-11-12T08:29:11;95718.00;;;11.37;73.99
6128;BME280;7073;42.672;23.256;2022-11-12T08:31:38;95720.59;;;11.37;73.38
6128;BME280;7073;42.672;23.256;2022-11-12T08:34:05;95736.88;;;11.60;73.11
6128;BME280;7073;42.672;23.256;2022-11-12T08:36:39;95743.75;;;11.67;73.70
6128;BME280;7073;42.672;23.256;2022-11-12T08:39:07;95744.31;;;11.42;73.73
6128;BME280;7073;42.672;23.256;2022-11-12T08:41:34;95744.13;;;11.64;73.50
6128;BME280;7073;42.672;23.256;2022-11-12T08:44:01;95735.31;;;11.65;74.58
6128;BME280;7073;42.672;23.256;2022-11-12T08:46:28;95735.03;;;11.75;72.73
6128;BME280;7073;42.672;23.256;2022-11-12T08:48:55;95738.25;;;11.56;73.50
6128;BME280;7073;42.672;23.256;2022-11-12T08:51:22;95750.28;;;11.72;70.85
6128;BME280;7073;42.672;23.256;2022-11-12T08:53:50;95747.47;;;11.73;68.72
6128;BME280;7073;42.672;23.256;2022-11-12T08:56:17;95747.38;;;11.66;70.56
6128;BME280;7073;42.672;23.256;2022-11-12T08:58:43;95752.59;;;11.66;69.86
6128;BME280;7073;42.672;23.256;2022-11-12T09:01:10;95747.84;;;11.70;69.24
6128;BME280;7073;42.672;23.256;2022-11-12T09:03:37;95755.38;;;11.44;68.90
6128;BME280;7073;42.672;23.256;2022-11-12T09:06:06;95729.84;;;11.60;70.41
6128;BME280;7073;42.672;23.256;2022-11-12T09:08:35;95742.53;;;12.06;67.62
6128;BME280;7073;42.672;23.256;2022-11-12T09:11:04;95740.00;;;12.19;67.08
6128;BME280;7073;42.672;23.256;2022-11-12T09:13:31;95739.31;;;12.38;66.17
6128;BME280;7073;42.672;23.256;2022-11-12T09:16:00;95745.09;;;12.27;65.69
6128;BME280;7073;42.672;23.256;2022-11-12T09:18:28;95731.13;;;12.13;65.96
6128;BME280;7073;42.672;23.256;2022-11-12T09:20:58;95747.66;;;12.20;65.87
6128;BME280;7073;42.672;23.256;2022-11-12T09:23:28;95746.25;;;11.54;66.78
6128;BME280;7073;42.672;23.256;2022-11-12T09:25:55;95739.25;;;11.97;66.28
6128;BME280;7073;42.672;23.256;2022-11-12T09:28:24;95744.06;;;12.28;65.43
6128;BME280;7073;42.672;23.256;2022-11-12T09:30:52;95740.84;;;12.60;64.75
6128;BME280;7073;42.672;23.256;2022-11-12T09:33:22;95747.00;;;12.46;64.91
6128;BME280;7073;42.672;23.256;2022-11-12T09:35:51;95735.47;;;12.68;65.00
6128;BME280;7073;42.672;23.256;2022-11-12T09:38:19;95751.84;;;12.83;63.47
6128;BME280;7073;42.672;23.256;2022-11-12T09:41:00;95738.63;;;12.57;65.78
6128;BME280;7073;42.672;23.256;2022-11-12T09:43:36;95749.47;;;12.54;63.49
6128;BME280;7073;42.672;23.256;2022-11-12T09:46:08;95740.53;;;12.08;65.89
6128;BME280;7073;42.672;23.256;2022-11-12T09:48:40;95747.06;;;12.25;64.98
6128;BME280;7073;42.672;23.256;2022-11-12T09:51:14;95736.06;;;12.30;65.64
6128;BME280;7073;42.672;23.256;2022-11-12T09:53:46;95740.31;;;12.37;65.13
6128;BME280;7073;42.672;23.256;2022-11-12T09:56:16;95741.75;;;11.84;66.05
6128;BME280;7073;42.672;23.256;2022-11-12T09:58:46;95745.63;;;12.22;65.78
6128;BME280;7073;42.672;23.256;2022-11-12T10:01:14;95746.31;;;12.31;64.91
6128;BME280;7073;42.672;23.256;2022-11-12T10:03:51;95745.84;;;12.21;65.12
6128;BME280;7073;42.672;23.256;2022-11-12T10:06:22;95743.22;;;12.21;65.58
6128;BME280;7073;42.672;23.256;2022-11-12T10:08:54;95742.63;;;12.19;66.52
6128;BME280;7073;42.672;23.256;2022-11-12T10:11:36;95738.16;;;12.13;66.72
6128;BME280;7073;42.672;23.256;2022-11-12T10:14:39;95742.53;;;12.06;64.70
6128;BME280;7073;42.672;23.256;2022-11-12T10:17:18;95726.34;;;11.96;64.51
6128;BME280;7073;42.672;23.256;2022-11-12T10:19:55;95739.91;;;12.06;63.42
6128;BME280;7073;42.672;23.256;2022-11-12T10:22:39;95733.06;;;12.05;63.30
6128;BME280;7073;42.672;23.256;2022-11-12T10:25:14;95742.69;;;11.77;65.39
6128;BME280;7073;42.672;23.256;2022-11-12T10:27:54;95736.41;;;11.99;64.16
6128;BME280;7073;42.672;23.256;2022-11-12T10:30:24;95743.84;;;11.95;64.65
6128;BME280;7073;42.672;23.256;2022-11-12T10:32:52;95744.91;;;12.01;64.02
6128;BME280;7073;42.672;23.256;2022-11-12T10:35:21;95721.53;;;11.93;63.77
6128;BME280;7073;42.672;23.256;2022-11-12T10:37:51;95745.84;;;12.21;63.47
6128;BME280;7073;42.672;23.256;2022-11-12T10:40:30;95735.53;;;11.85;65.20
6128;BME280;7073;42.672;23.256;2022-11-12T10:43:02;95744.09;;;12.00;63.96
6128;BME280;7073;42.672;23.256;2022-11-12T10:45:34;95741.09;;;12.03;64.70
6128;BME280;7073;42.672;23.256;2022-11-12T10:48:01;95747.19;;;11.89;64.55
6128;BME280;7073;42.672;23.256;2022-11-12T10:50:32;95744.59;;;12.17;65.19
6128;BME280;7073;42.672;23.256;2022-11-12T10:53:02;95743.78;;;11.89;66.12
6128;BME280;7073;42.672;23.256;2022-11-12T10:55:30;95733.84;;;11.78;67.86
6128;BME280;7073;42.672;23.256;2022-11-12T10:58:18;95746.13;;;11.62;68.79
6128;BME280;7073;42.672;23.256;2022-11-12T11:00:56;95743.16;;;11.65;68.79
6128;BME280;7073;42.672;23.256;2022-11-12T11:03:30;95743.88;;;11.59;70.58
6128;BME280;7073;42.672;23.256;2022-11-12T11:06:35;95747.25;;;11.96;69.03
6128;BME280;7073;42.672;23.256;2022-11-12T11:09:14;95740.22;;;11.96;68.69
6128;BME280;7073;42.672;23.256;2022-11-12T11:11:52;95730.97;;;11.94;69.04
6128;BME280;7073;42.672;23.256;2022-11-12T11:14:41;95737.97;;;11.93;69.03
6128;BME280;7073;42.672;23.256;2022-11-12T11:17:15;95736.09;;;11.81;68.95
6128;BME280;7073;42.672;23.256;2022-11-12T11:19:42;95734.13;;;11.47;69.68
6128;BME280;7073;42.672;23.256;2022-11-12T11:22:25;95733.22;;;11.54;69.76
6128;BME280;7073;42.672;23.256;2022-11-12T11:25:09;95729.41;;;11.36;71.11
6128;BME280;7073;42.672;23.256;2022-11-12T11:27:43;95724.81;;;11.38;70.74
6128;BME280;7073;42.672;23.256;2022-11-12T11:30:13;95726.38;;;11.53;70.86
6128;BME280;7073;42.672;23.256;2022-11-12T11:36:03;95729.03;;;11.75;74.58
6128;BME280;7073;42.672;23.256;2022-11-12T11:38:45;95737.50;;;11.83;72.00
6128;BME280;7073;42.672;23.256;2022-11-12T11:41:31;95736.53;;;12.12;74.94
6128;BME280;7073;42.672;23.256;2022-11-12T11:44:06;95733.22;;;11.54;71.67
6128;BME280;7073;42.672;23.256;2022-11-12T11:46:52;95737.63;;;11.75;69.95
6128;BME280;7073;42.672;23.256;2022-11-12T11:52:48;95733.56;;;11.94;71.00
6128;BME280;7073;42.672;23.256;2022-11-12T11:55:22;95734.97;;;11.90;69.41
6128;BME280;7073;42.672;23.256;2022-11-12T11:58:11;95731.16;;;12.20;69.34
6128;BME280;7073;42.672;23.256;2022-11-12T12:00:46;95726.78;;;11.72;68.85
6128;BME280;7073;42.672;23.256;2022-11-12T12:03:21;95741.97;;;11.47;72.48
6128;BME280;7073;42.672;23.256;2022-11-12T12:06:17;95739.69;;;11.80;70.50
6128;BME280;7073;42.672;23.256;2022-11-12T12:09:01;95737.31;;;12.06;68.93
6128;BME280;7073;42.672;23.256;2022-11-12T12:11:33;95734.00;;;12.25;68.21
6128;BME280;7073;42.672;23.256;2022-11-12T12:14:17;95738.09;;;12.06;67.17
6128;BME280;7073;42.672;23.256;2022-11-12T12:16:55;95726.16;;;12.25;68.26
6128;BME280;7073;42.672;23.256;2022-11-12T12:19:37;95725.47;;;12.10;67.90
6128;BME280;7073;42.672;23.256;2022-11-12T12:22:11;95717.13;;;12.27;67.42
6128;BME280;7073;42.672;23.256;2022-11-12T12:24:46;95709.56;;;12.39;66.59
6128;BME280;7073;42.672;23.256;2022-11-12T12:27:33;95702.88;;;12.30;67.59
6128;BME280;7073;42.672;23.256;2022-11-12T12:30:04;95718.03;;;12.41;66.74
6128;BME280;7073;42.672;23.256;2022-11-12T12:32:36;95715.03;;;12.44;67.09
6128;BME280;7073;42.672;23.256;2022-11-12T12:35:12;95710.91;;;12.22;69.00
6128;BME280;7073;42.672;23.256;2022-11-12T12:37:45;95716.19;;;12.35;68.53
6128;BME280;7073;42.672;23.256;2022-11-12T12:40:17;95716.63;;;12.11;69.92
6128;BME280;7073;42.672;23.256;2022-11-12T12:42:49;95719.22;;;11.83;71.67
6128;BME280;7073;42.672;23.256;2022-11-12T12:45:37;95715.41;;;11.64;73.89
6128;BME280;7073;42.672;23.256;2022-11-12T12:48:07;95719.13;;;11.70;73.64
6128;BME280;7073;42.672;23.256;2022-11-12T12:50:39;95716.59;;;11.62;74.50
6128;BME280;7073;42.672;23.256;2022-11-12T12:53:16;95713.94;;;11.55;74.65
6128;BME280;7073;42.672;23.256;2022-11-12T12:55:46;95715.19;;;11.81;74.30
6128;BME280;7073;42.672;23.256;2022-11-12T12:58:20;95718.69;;;11.66;76.13
6128;BME280;7073;42.672;23.256;2022-11-12T13:00:50;95716.06;;;11.66;78.67
6128;BME280;7073;42.672;23.256;2022-11-12T13:03:51;95719.94;;;11.71;79.89
6128;BME280;7073;42.672;23.256;2022-11-12T13:06:24;95713.84;;;11.85;80.45
6128;BME280;7073;42.672;23.256;2022-11-12T13:08:55;95711.50;;;11.54;82.32
6128;BME280;7073;42.672;23.256;2022-11-12T13:11:51;95705.50;;;11.32;84.23
6128;BME280;7073;42.672;23.256;2022-11-12T13:15:07;95714.53;;;11.30;84.34
6128;BME280;7073;42.672;23.256;2022-11-12T13:17:43;95712.31;;;11.33;85.31
6128;BME280;7073;42.672;23.256;2022-11-12T13:20:39;95714.56;;;11.36;84.65
6128;BME280;7073;42.672;23.256;2022-11-12T13:23:11;95709.47;;;11.49;87.22
6128;BME280;7073;42.672;23.256;2022-11-12T13:26:53;95723.91;;;11.45;85.85
6128;BME280;7073;42.672;23.256;2022-11-12T13:29:23;95716.66;;;11.05;87.37
6128;BME280;7073;42.672;23.256;2022-11-12T13:32:32;95720.50;;;11.09;89.17
6128;BME280;7073;42.672;23.256;2022-11-12T13:35:19;95707.63;;;10.86;88.86
6128;BME280;7073;42.672;23.256;2022-11-12T13:37:48;95720.59;;;11.37;88.69